createdAt,value
2022-08-26T00:01:38.022Z,37.78
2022-08-26T00:06:42.615Z,28.95
2022-08-26T00:11:49.234Z,30.15
2022-08-26T00:16:53.640Z,26.17
2022-08-26T00:21:57.799Z,29.60
2022-08-26T00:27:00.678Z,30.83
2022-08-26T00:32:04.001Z,26.83
2022-08-26T00:37:09.442Z,31.38
2022-08-26T00:42:15.059Z,20.13
2022-08-26T00:47:31.049Z,31.95
2022-08-26T00:52:35.888Z,26.17
2022-08-26T00:57:41.654Z,42.13
2022-08-26T01:02:46.910Z,37.05
2022-08-26T01:07:50.504Z,27.20
2022-08-26T01:13:07.076Z,27.73
2022-08-26T01:18:10.497Z,37.42
2022-08-26T01:23:15.312Z,25.20
2022-08-26T01:28:24.253Z,35.47
2022-08-26T01:33:43.768Z,23.25
2022-08-26T01:38:46.722Z,33.30
2022-08-26T01:43:52.741Z,27.58
2022-08-26T01:48:58.658Z,28.20
2022-08-26T01:54:01.928Z,43.08
2022-08-26T01:59:08.404Z,27.92
2022-08-26T02:04:31.188Z,40.53
2022-08-26T02:09:34.047Z,26.02
2022-08-26T02:14:50.250Z,34.13
2022-08-26T02:19:53.881Z,25.38
2022-08-26T02:25:07.865Z,34.30
2022-08-26T02:30:17.112Z,38.42
2022-08-26T02:35:21.936Z,32.30
2022-08-26T02:40:29.235Z,26.00
2022-08-26T02:45:32.549Z,34.97
2022-08-26T02:50:35.734Z,27.67
2022-08-26T02:55:41.014Z,34.25
2022-08-26T03:00:52.830Z,29.85
2022-08-26T03:05:56.370Z,25.88
2022-08-26T03:10:59.239Z,35.72
2022-08-26T03:16:04.876Z,28.75
2022-08-26T03:21:10.882Z,26.48
2022-08-26T03:26:14.966Z,28.83
2022-08-26T03:31:18.536Z,27.55
2022-08-26T03:36:21.319Z,31.23
2022-08-26T03:41:23.954Z,27.50
2022-08-26T03:46:26.764Z,29.08
2022-08-26T03:51:29.737Z,34.42
2022-08-26T03:56:34.255Z,29.15
2022-08-26T04:01:37.657Z,26.17
2022-08-26T04:06:43.398Z,28.20
2022-08-26T04:11:50.601Z,27.92
2022-08-26T04:16:55.372Z,26.77
2022-08-26T04:21:58.100Z,31.23
2022-08-26T04:27:03.461Z,28.83
2022-08-26T04:32:05.998Z,25.55
2022-08-26T04:37:09.128Z,22.27
2022-08-26T04:42:12.800Z,25.67
2022-08-26T04:47:15.239Z,28.48
2022-08-26T04:52:17.965Z,24.75
2022-08-26T04:57:20.461Z,29.80
2022-08-26T05:02:22.968Z,30.50
2022-08-26T05:07:25.475Z,24.95
2022-08-26T05:12:31.243Z,25.75
2022-08-26T05:17:33.633Z,24.88
2022-08-26T05:22:36.064Z,29.90
2022-08-26T05:27:38.560Z,29.08
2022-08-26T05:32:41.795Z,24.83
2022-08-26T05:37:44.767Z,26.95
2022-08-26T05:42:47.660Z,24.80
2022-08-26T05:47:51.277Z,25.92
2022-08-26T05:52:53.840Z,29.73
2022-08-26T05:57:57.361Z,22.50
2022-08-26T06:02:59.858Z,31.20
2022-08-26T06:08:11.347Z,23.67
2022-08-26T06:13:14.383Z,23.40
2022-08-26T06:18:20.836Z,28.90
2022-08-26T06:23:42.009Z,24.02
2022-08-26T06:28:45.859Z,25.02
2022-08-26T06:33:48.612Z,25.58
2022-08-26T06:38:52.884Z,21.75
2022-08-26T06:43:56.667Z,21.63
2022-08-26T06:48:59.880Z,20.38
2022-08-26T06:54:04.071Z,22.73
2022-08-26T06:59:08.454Z,21.15
2022-08-26T07:04:15.525Z,17.40
2022-08-26T07:09:18.445Z,17.65
2022-08-26T07:14:22.804Z,18.05
2022-08-26T07:19:31.185Z,20.02
2022-08-26T07:24:36.304Z,21.35
2022-08-26T07:29:40.694Z,22.15
2022-08-26T07:34:45.830Z,21.98
2022-08-26T07:39:48.502Z,20.13
2022-08-26T07:44:51.759Z,22.50
2022-08-26T07:49:55.953Z,20.50
2022-08-26T07:55:00.725Z,22.60
2022-08-26T08:00:07.637Z,15.98
2022-08-26T08:05:17.065Z,18.98
2022-08-26T08:10:25.221Z,21.92
2022-08-26T08:15:32.267Z,23.73
2022-08-26T08:20:35.928Z,18.52
2022-08-26T08:25:39.041Z,22.30
2022-08-26T08:30:42.587Z,18.00
2022-08-26T08:35:46.078Z,21.52
2022-08-26T08:40:48.907Z,20.50
2022-08-26T08:45:57.715Z,21.60
2022-08-26T08:51:14.318Z,18.05
2022-08-26T08:56:37.820Z,18.30
2022-08-26T09:01:59.870Z,22.38
2022-08-26T09:07:04.756Z,17.33
2022-08-26T09:12:14.752Z,20.42
2022-08-26T09:17:47.971Z,19.73
2022-08-26T09:22:51.436Z,19.85
2022-08-26T09:27:54.103Z,20.55
2022-08-26T09:33:10.462Z,21.55
2022-08-26T09:38:26.766Z,15.20
2022-08-26T09:43:31.344Z,17.13
2022-08-26T09:48:36.866Z,21.92
2022-08-26T09:53:55.121Z,21.33
2022-08-26T09:58:58.493Z,18.95
2022-08-26T10:04:22.769Z,17.10
2022-08-26T10:09:34.559Z,19.83
2022-08-26T10:14:52.008Z,19.65
2022-08-26T10:20:03.990Z,20.45
2022-08-26T10:25:13.095Z,19.58
2022-08-26T10:30:22.689Z,17.13
2022-08-26T10:35:27.078Z,15.98
2022-08-26T10:40:50.924Z,14.27
2022-08-26T10:46:08.527Z,14.23
2022-08-26T10:51:14.976Z,11.00
2022-08-26T10:56:39.832Z,16.58
2022-08-26T11:01:42.915Z,8.15
2022-08-26T11:06:46.227Z,24.48
2022-08-26T11:11:49.781Z,19.23
2022-08-26T11:16:54.387Z,17.17
2022-08-26T11:22:09.451Z,18.85
2022-08-26T11:27:35.190Z,15.90
2022-08-26T11:32:38.168Z,12.75
2022-08-26T11:37:41.432Z,15.40
2022-08-26T11:42:49.346Z,16.88
2022-08-26T11:47:51.910Z,14.63
2022-08-26T11:52:56.442Z,12.45
2022-08-26T11:58:02.031Z,15.15
2022-08-26T12:03:08.741Z,12.07
2022-08-26T12:08:16.518Z,12.50
2022-08-26T12:13:22.847Z,12.93
2022-08-26T12:18:31.792Z,16.27
2022-08-26T12:23:44.211Z,12.35
2022-08-26T12:29:00.503Z,14.73
2022-08-26T12:34:06.368Z,17.65
2022-08-26T12:39:30.793Z,13.27
2022-08-26T12:44:54.029Z,24.08
2022-08-26T12:50:28.447Z,17.35
2022-08-26T12:55:47.583Z,15.07
2022-08-26T13:06:40.473Z,12.30
2022-08-26T13:11:44.991Z,9.63
2022-08-26T13:16:47.418Z,12.13
2022-08-26T13:21:56.382Z,9.73
2022-08-26T13:26:59.202Z,13.50
2022-08-26T13:32:03.185Z,18.08
2022-08-26T13:37:06.401Z,11.48
2022-08-26T13:42:09.442Z,11.68
2022-08-26T13:47:11.952Z,11.05
2022-08-26T13:52:14.472Z,10.93
2022-08-26T13:57:16.840Z,14.50
2022-08-26T14:02:19.529Z,15.13
2022-08-26T14:07:22.629Z,11.88
2022-08-26T14:12:25.270Z,8.50
2022-08-26T14:17:27.810Z,13.85
2022-08-26T14:22:33.907Z,11.32
2022-08-26T14:27:36.325Z,11.07
2022-08-26T14:32:45.514Z,11.45
2022-08-26T14:37:48.694Z,10.10
2022-08-26T14:42:54.055Z,10.23
2022-08-26T14:47:57.003Z,10.98
2022-08-26T14:53:17.851Z,13.45
2022-08-26T14:58:20.291Z,10.80
2022-08-26T15:03:22.620Z,11.50
2022-08-26T15:08:25.510Z,10.13
2022-08-26T15:13:28.249Z,10.85
2022-08-26T15:18:31.755Z,11.38
2022-08-26T15:23:35.676Z,10.27
2022-08-26T15:28:38.969Z,10.63
2022-08-26T15:33:41.592Z,10.48
2022-08-26T15:38:44.120Z,11.70
2022-08-26T15:43:46.620Z,11.15
2022-08-26T15:48:49.147Z,13.23
2022-08-26T15:53:52.145Z,11.15
2022-08-26T15:58:56.133Z,11.55
2022-08-26T16:03:59.717Z,9.95
2022-08-26T16:09:02.189Z,10.98
2022-08-26T16:14:05.747Z,10.82
2022-08-26T16:19:08.521Z,12.35
2022-08-26T16:24:12.073Z,10.20
2022-08-26T16:29:16.697Z,11.70
2022-08-26T16:34:19.402Z,11.15
2022-08-26T16:39:21.829Z,12.18
2022-08-26T16:44:24.584Z,11.23
2022-08-26T16:49:32.320Z,11.95
2022-08-26T16:54:35.825Z,11.45
2022-08-26T16:59:39.578Z,11.18
2022-08-26T17:04:41.982Z,10.80
2022-08-26T17:09:49.709Z,10.00
2022-08-26T17:14:52.248Z,10.35
2022-08-26T17:19:54.691Z,10.57
2022-08-26T17:24:57.575Z,9.75
2022-08-26T17:30:00.071Z,10.35
2022-08-26T17:35:03.805Z,10.40
2022-08-26T17:40:09.866Z,13.80
2022-08-26T17:45:13.112Z,13.80
2022-08-26T17:50:18.461Z,20.75
2022-08-26T17:55:21.005Z,13.95
2022-08-26T18:00:27.442Z,10.57
2022-08-26T18:05:30.156Z,10.27
2022-08-26T18:10:32.992Z,16.27
2022-08-26T18:15:39.684Z,8.27
2022-08-26T18:20:44.623Z,17.33
2022-08-26T18:25:47.114Z,12.35
2022-08-26T18:30:49.507Z,14.13
2022-08-26T18:35:52.834Z,16.63
2022-08-26T18:40:55.384Z,15.35
2022-08-26T18:46:03.186Z,8.38
2022-08-26T18:51:06.932Z,14.35
2022-08-26T18:56:16.628Z,13.55
2022-08-26T19:01:25.410Z,13.25
2022-08-26T19:06:33.005Z,11.10
2022-08-26T19:11:37.554Z,12.93
2022-08-26T19:16:48.405Z,14.60
2022-08-26T19:21:51.846Z,18.83
2022-08-26T19:26:58.296Z,13.60
2022-08-26T19:32:02.101Z,13.27
2022-08-26T19:37:04.638Z,8.98
2022-08-26T19:42:07.088Z,8.93
2022-08-26T19:47:11.108Z,12.75
2022-08-26T19:52:13.948Z,10.13
2022-08-26T19:57:17.042Z,11.55
2022-08-26T20:02:20.675Z,13.95
2022-08-26T20:07:23.401Z,10.32
2022-08-26T20:12:27.879Z,14.60
2022-08-26T20:17:31.037Z,15.50
2022-08-26T20:22:33.944Z,10.95
2022-08-26T20:27:38.236Z,17.08
2022-08-26T20:32:41.875Z,11.80
2022-08-26T20:37:44.310Z,8.90
2022-08-26T20:42:46.786Z,13.38
2022-08-26T20:47:49.295Z,10.65
2022-08-26T20:52:53.638Z,11.98
2022-08-26T20:57:56.123Z,11.38
2022-08-26T21:03:00.545Z,18.83
2022-08-26T21:08:03.301Z,14.43
2022-08-26T21:13:06.044Z,10.25
2022-08-26T21:18:08.733Z,10.23
2022-08-26T21:23:11.455Z,18.55
2022-08-26T21:28:13.873Z,13.35
2022-08-26T21:33:16.350Z,18.08
2022-08-26T21:38:18.959Z,13.45
2022-08-26T21:43:33.660Z,14.50
2022-08-26T21:48:39.327Z,16.60
2022-08-26T21:53:42.192Z,10.30
2022-08-26T21:58:45.209Z,13.68
2022-08-26T22:03:49.222Z,14.77
2022-08-26T22:08:52.305Z,18.15
2022-08-26T22:13:56.944Z,17.13
2022-08-26T22:18:59.868Z,19.17
2022-08-26T22:24:03.241Z,13.95
2022-08-26T22:29:07.551Z,20.02
2022-08-26T22:34:13.205Z,20.58
2022-08-26T22:39:19.188Z,14.70
2022-08-26T22:44:22.289Z,15.68
2022-08-26T22:49:24.870Z,14.52
2022-08-26T22:54:28.173Z,16.13
2022-08-26T22:59:30.635Z,14.02
2022-08-26T23:04:33.829Z,13.93
2022-08-26T23:09:38.105Z,11.27
2022-08-26T23:14:41.485Z,14.63
2022-08-26T23:19:44.033Z,18.08
2022-08-26T23:24:46.794Z,19.33
2022-08-26T23:29:49.242Z,13.00
2022-08-26T23:34:58.942Z,17.02
2022-08-26T23:40:14.130Z,12.90
2022-08-26T23:45:18.523Z,13.77
2022-08-26T23:50:44.912Z,12.00
2022-08-26T23:55:49.598Z,16.65
